createdAt,value
2018-02-17T00:00:58.792Z,0
2018-02-17T00:02:00.436Z,0
2018-02-17T00:03:02.100Z,0
2018-02-17T00:04:03.791Z,0
2018-02-17T00:05:05.439Z,0
2018-02-17T00:06:07.095Z,0
2018-02-17T00:07:10.600Z,0
2018-02-17T00:08:12.248Z,0
2018-02-17T00:09:13.904Z,0
2018-02-17T00:10:15.550Z,0
2018-02-17T00:11:17.194Z,0
2018-02-17T00:12:19.030Z,0
2018-02-17T00:13:20.679Z,0
2018-02-17T00:14:22.328Z,0
2018-02-17T00:15:23.980Z,0
2018-02-17T00:16:25.627Z,0
2018-02-17T00:17:27.271Z,0
2018-02-17T00:18:28.917Z,0
2018-02-17T00:19:30.562Z,0
2018-02-17T00:20:32.209Z,0
2018-02-17T00:21:33.868Z,0
2018-02-17T00:22:35.518Z,0
2018-02-17T00:23:37.166Z,0
2018-02-17T00:24:38.798Z,0
2018-02-17T00:25:40.440Z,0
2018-02-17T00:26:42.086Z,0
2018-02-17T00:27:43.725Z,0
2018-02-17T00:28:45.374Z,0
2018-02-17T00:29:47.031Z,0
2018-02-17T00:30:48.674Z,0
2018-02-17T00:31:50.318Z,0
2018-02-17T00:32:51.972Z,0
2018-02-17T00:33:53.617Z,0
2018-02-17T00:34:55.268Z,0
2018-02-17T00:35:56.917Z,0
2018-02-17T00:36:58.556Z,0
2018-02-17T00:38:00.205Z,0
2018-02-17T00:39:01.858Z,0
2018-02-17T00:40:03.505Z,0
2018-02-17T00:41:05.155Z,0
2018-02-17T00:42:06.804Z,0
2018-02-17T00:43:08.460Z,0
2018-02-17T00:44:10.119Z,0
2018-02-17T00:45:11.787Z,0
2018-02-17T00:46:13.434Z,0
2018-02-17T00:47:15.075Z,0
2018-02-17T00:48:16.736Z,0
2018-02-17T00:49:18.386Z,0
2018-02-17T00:50:20.024Z,0
2018-02-17T00:51:21.677Z,0
2018-02-17T00:52:23.322Z,0
2018-02-17T00:53:24.971Z,0
2018-02-17T00:54:26.617Z,0
2018-02-17T00:55:28.265Z,0
2018-02-17T00:56:29.917Z,0
2018-02-17T00:57:31.564Z,0
2018-02-17T00:58:33.408Z,0
2018-02-17T00:59:35.057Z,0
2018-02-17T01:00:36.719Z,0
2018-02-17T01:01:38.370Z,0
2018-02-17T01:02:40.127Z,0
2018-02-17T01:03:41.769Z,0
2018-02-17T01:04:43.419Z,0
2018-02-17T01:05:45.057Z,0
2018-02-17T01:06:46.704Z,0
2018-02-17T01:07:48.349Z,0
2018-02-17T01:08:49.999Z,0
2018-02-17T01:09:51.651Z,0
2018-02-17T01:10:53.300Z,0
2018-02-17T01:11:54.949Z,0
2018-02-17T01:12:56.605Z,0
2018-02-17T01:13:58.256Z,0
2018-02-17T01:14:59.898Z,0
2018-02-17T01:16:01.546Z,0
2018-02-17T01:17:03.246Z,0
2018-02-17T01:18:04.889Z,0
2018-02-17T01:19:06.540Z,0
2018-02-17T01:20:08.187Z,0
2018-02-17T01:21:09.837Z,0
2018-02-17T01:22:11.512Z,0
2018-02-17T01:23:13.157Z,0
2018-02-17T01:24:14.805Z,0
2018-02-17T01:25:16.447Z,0
2018-02-17T01:26:18.094Z,0
2018-02-17T01:27:19.742Z,0
2018-02-17T01:28:21.387Z,0
2018-02-17T01:29:23.044Z,0
2018-02-17T01:30:24.688Z,0
2018-02-17T01:31:26.333Z,0
2018-02-17T01:32:27.980Z,0
2018-02-17T01:33:29.626Z,0
2018-02-17T01:34:31.265Z,0
2018-02-17T01:35:32.919Z,0
2018-02-17T01:36:34.572Z,0
2018-02-17T01:37:36.223Z,0
2018-02-17T01:38:37.868Z,0
2018-02-17T01:39:39.510Z,0
2018-02-17T01:40:41.149Z,0
2018-02-17T01:41:42.794Z,0
2018-02-17T01:42:44.444Z,0
2018-02-17T01:43:46.085Z,0
2018-02-17T01:44:47.734Z,0
2018-02-17T01:45:49.383Z,0
2018-02-17T01:46:51.055Z,0
2018-02-17T01:47:52.695Z,0
2018-02-17T01:48:54.346Z,0
2018-02-17T01:49:55.985Z,0
2018-02-17T01:50:57.663Z,0
2018-02-17T01:51:59.305Z,0
2018-02-17T01:53:00.958Z,0
2018-02-17T01:54:02.602Z,0
2018-02-17T01:55:04.255Z,0
2018-02-17T01:56:05.905Z,0
2018-02-17T01:57:07.557Z,0
2018-02-17T01:58:09.257Z,0
2018-02-17T01:59:10.903Z,0
2018-02-17T02:00:12.553Z,0
2018-02-17T02:01:14.200Z,0
2018-02-17T02:02:15.886Z,0
2018-02-17T02:03:17.533Z,0
2018-02-17T02:04:19.180Z,0
2018-02-17T02:05:20.821Z,0
2018-02-17T02:06:22.471Z,0
2018-02-17T02:07:24.115Z,0
2018-02-17T02:08:25.761Z,0
2018-02-17T02:09:27.406Z,0
2018-02-17T02:10:29.056Z,0
2018-02-17T02:11:30.702Z,0
2018-02-17T02:12:32.356Z,0
2018-02-17T02:13:34.007Z,0
2018-02-17T02:14:35.647Z,0
2018-02-17T02:15:37.290Z,0
2018-02-17T02:16:38.936Z,0
2018-02-17T02:17:40.592Z,0
2018-02-17T02:18:42.229Z,0
2018-02-17T02:19:43.869Z,0
2018-02-17T02:20:45.517Z,0
2018-02-17T02:21:47.154Z,0
2018-02-17T02:22:48.798Z,0
2018-02-17T02:23:50.449Z,0
2018-02-17T02:24:52.086Z,0
2018-02-17T02:25:53.731Z,0
2018-02-17T02:26:55.375Z,0
2018-02-17T02:27:57.024Z,0
2018-02-17T02:28:58.676Z,0
2018-02-17T02:30:00.968Z,0
2018-02-17T02:31:02.652Z,0
2018-02-17T02:32:04.271Z,0
2018-02-17T02:33:05.916Z,0
2018-02-17T02:34:07.559Z,0
2018-02-17T02:35:09.203Z,0
2018-02-17T02:36:10.843Z,0
2018-02-17T02:37:12.487Z,0
2018-02-17T02:38:14.125Z,0
2018-02-17T02:39:15.773Z,0
2018-02-17T02:40:17.416Z,0
2018-02-17T02:41:19.061Z,0
2018-02-17T02:42:20.708Z,0
2018-02-17T02:43:22.357Z,0
2018-02-17T02:44:24.007Z,0
2018-02-17T02:45:25.653Z,0
2018-02-17T02:46:27.312Z,0
2018-02-17T02:47:28.939Z,0
2018-02-17T02:48:30.581Z,0
2018-02-17T02:49:32.226Z,0
2018-02-17T02:50:33.873Z,0
2018-02-17T02:51:35.515Z,0
2018-02-17T02:52:37.164Z,0
2018-02-17T02:53:38.811Z,0
2018-02-17T02:54:40.460Z,0
2018-02-17T03:01:15.847Z,0
2018-02-17T03:02:17.488Z,0
2018-02-17T03:04:10.761Z,0
2018-02-17T03:05:12.386Z,0
2018-02-17T03:06:14.035Z,0
2018-02-17T03:07:15.676Z,0
2018-02-17T03:08:17.381Z,0
2018-02-17T03:09:18.980Z,0
2018-02-17T03:10:20.627Z,0
2018-02-17T03:11:22.272Z,0
2018-02-17T03:12:23.917Z,0
2018-02-17T03:13:25.553Z,0
2018-02-17T03:14:27.205Z,0
2018-02-17T03:15:28.844Z,0
2018-02-17T03:16:30.484Z,0
2018-02-17T03:17:32.137Z,0
2018-02-17T03:18:33.782Z,0
2018-02-17T03:19:35.431Z,0
2018-02-17T03:20:37.075Z,0
2018-02-17T03:21:38.718Z,0
2018-02-17T03:22:40.363Z,0
2018-02-17T03:23:42.002Z,0
2018-02-17T03:24:43.652Z,0
2018-02-17T03:25:45.302Z,0
2018-02-17T03:26:46.946Z,0
2018-02-17T03:27:48.631Z,0
2018-02-17T03:28:50.242Z,0
2018-02-17T03:29:51.890Z,0
2018-02-17T03:30:53.537Z,0
2018-02-17T03:31:55.182Z,0
2018-02-17T03:32:56.833Z,0
2018-02-17T03:33:58.473Z,0
2018-02-17T03:35:00.118Z,0
2018-02-17T03:36:01.758Z,0
2018-02-17T03:37:03.409Z,0
2018-02-17T03:38:05.064Z,0
2018-02-17T03:39:06.707Z,0
2018-02-17T03:40:08.359Z,0
2018-02-17T03:41:10.004Z,0
2018-02-17T03:42:11.653Z,0
2018-02-17T03:43:13.297Z,0
2018-02-17T03:44:14.943Z,0
2018-02-17T03:45:16.584Z,0
2018-02-17T03:46:18.234Z,0
2018-02-17T03:47:19.886Z,0
2018-02-17T03:48:21.526Z,0
2018-02-17T03:49:23.179Z,0
2018-02-17T03:50:24.814Z,0
2018-02-17T03:51:26.458Z,0
2018-02-17T03:52:28.106Z,0
2018-02-17T03:53:29.754Z,0
2018-02-17T03:54:31.401Z,0
2018-02-17T03:55:33.058Z,0
2018-02-17T03:56:34.693Z,0
2018-02-17T03:57:36.333Z,0
2018-02-17T03:58:37.985Z,0
2018-02-17T03:59:39.654Z,0
2018-02-17T04:00:41.272Z,0
2018-02-17T04:01:42.920Z,0
2018-02-17T04:02:44.564Z,0
2018-02-17T04:03:46.209Z,0
2018-02-17T04:04:47.861Z,0
2018-02-17T04:05:49.510Z,0
2018-02-17T04:06:51.161Z,0
2018-02-17T04:07:52.811Z,0
2018-02-17T04:08:54.459Z,0
2018-02-17T04:09:56.099Z,0
2018-02-17T04:10:57.738Z,0
2018-02-17T04:11:59.407Z,0
2018-02-17T04:13:01.043Z,0
2018-02-17T04:14:02.697Z,0
2018-02-17T04:15:04.342Z,0
2018-02-17T04:16:06.004Z,0
2018-02-17T04:17:07.655Z,0
2018-02-17T04:18:09.338Z,0
2018-02-17T04:19:10.967Z,0
2018-02-17T04:20:12.610Z,0
2018-02-17T04:21:14.251Z,0
2018-02-17T04:22:15.884Z,0
2018-02-17T04:23:17.529Z,0
2018-02-17T04:24:19.205Z,0
2018-02-17T04:25:20.857Z,0
2018-02-17T04:26:22.512Z,0
2018-02-17T04:27:24.144Z,0
2018-02-17T04:28:25.793Z,0
2018-02-17T04:29:27.438Z,0
2018-02-17T04:30:29.085Z,0
2018-02-17T04:31:30.720Z,0
2018-02-17T04:32:32.362Z,0
2018-02-17T04:33:34.009Z,0
2018-02-17T04:34:35.657Z,0
2018-02-17T04:35:37.293Z,0
2018-02-17T04:36:38.944Z,0
2018-02-17T04:37:40.588Z,0
2018-02-17T04:38:42.231Z,0
2018-02-17T04:39:43.877Z,0
2018-02-17T04:40:45.525Z,0
2018-02-17T04:41:47.215Z,0
2018-02-17T04:42:48.809Z,0
2018-02-17T04:43:50.453Z,0
2018-02-17T04:44:52.103Z,0
2018-02-17T04:45:53.750Z,0
2018-02-17T04:46:55.386Z,0
2018-02-17T04:47:57.029Z,0
2018-02-17T04:48:58.677Z,0
2018-02-17T04:50:00.317Z,0
2018-02-17T04:51:01.967Z,0
2018-02-17T04:52:03.611Z,0
2018-02-17T04:53:05.261Z,0
2018-02-17T04:54:06.914Z,0
2018-02-17T04:55:08.556Z,0
2018-02-17T04:56:10.200Z,0
2018-02-17T04:57:11.858Z,0
2018-02-17T04:58:13.494Z,0
2018-02-17T04:59:15.149Z,0
2018-02-17T05:00:16.791Z,0
2018-02-17T05:01:18.445Z,0
2018-02-17T05:02:20.085Z,0
2018-02-17T05:03:21.724Z,0
2018-02-17T05:04:23.370Z,0
2018-02-17T05:05:25.024Z,0
2018-02-17T05:06:26.667Z,0
2018-02-17T05:07:28.308Z,0
2018-02-17T05:08:29.944Z,0
2018-02-17T05:09:31.592Z,0
2018-02-17T05:10:33.233Z,0
2018-02-17T05:11:34.883Z,0
2018-02-17T05:12:36.525Z,0
2018-02-17T05:13:38.175Z,0
2018-02-17T05:14:39.807Z,0
2018-02-17T05:15:41.457Z,0
2018-02-17T05:16:43.111Z,0
2018-02-17T05:17:44.749Z,0
2018-02-17T05:18:46.396Z,0
2018-02-17T05:19:48.044Z,0
2018-02-17T05:20:49.693Z,0
2018-02-17T05:21:51.340Z,0
2018-02-17T05:22:52.989Z,0
2018-02-17T05:23:54.629Z,0
2018-02-17T05:24:56.281Z,0
2018-02-17T05:25:57.914Z,0
2018-02-17T05:26:59.572Z,0
2018-02-17T05:28:01.223Z,0
2018-02-17T05:29:02.862Z,0
2018-02-17T05:30:04.514Z,0
2018-02-17T05:31:06.160Z,0
2018-02-17T05:32:07.821Z,0
2018-02-17T05:33:09.471Z,0
2018-02-17T05:34:11.132Z,0
2018-02-17T05:35:12.779Z,0
2018-02-17T05:36:14.422Z,0
2018-02-17T05:37:16.072Z,0
2018-02-17T05:38:17.763Z,0
2018-02-17T05:39:19.359Z,0
2018-02-17T05:40:21.003Z,0
2018-02-17T05:41:22.664Z,0
2018-02-17T05:42:24.322Z,0
2018-02-17T05:43:25.972Z,0
2018-02-17T05:44:27.620Z,0
2018-02-17T05:45:29.265Z,0
2018-02-17T05:46:30.905Z,0
2018-02-17T05:47:32.555Z,0
2018-02-17T05:48:34.201Z,0
2018-02-17T05:49:35.835Z,0
2018-02-17T05:50:37.477Z,0
2018-02-17T05:51:39.120Z,0
2018-02-17T05:52:40.773Z,0
2018-02-17T05:53:42.419Z,0
2018-02-17T05:54:44.084Z,0
2018-02-17T05:55:45.732Z,0
2018-02-17T05:56:47.374Z,0
2018-02-17T05:57:49.028Z,0
2018-02-17T05:58:50.664Z,0
2018-02-17T05:59:52.310Z,0
2018-02-17T06:00:53.957Z,0
2018-02-17T06:01:55.600Z,0
2018-02-17T06:02:57.259Z,0
2018-02-17T06:03:58.910Z,0
2018-02-17T06:05:00.550Z,4
2018-02-17T06:06:02.189Z,4
2018-02-17T06:07:03.834Z,4
2018-02-17T06:08:05.478Z,4
2018-02-17T06:09:07.133Z,4
2018-02-17T06:10:08.784Z,4
2018-02-17T06:11:10.430Z,4
2018-02-17T06:12:12.076Z,4
2018-02-17T06:13:13.739Z,8
2018-02-17T06:14:15.409Z,12
2018-02-17T06:15:17.061Z,12
2018-02-17T06:16:18.716Z,16
2018-02-17T06:17:20.372Z,16
2018-02-17T06:18:22.029Z,20
2018-02-17T06:19:23.673Z,24
2018-02-17T06:20:25.320Z,28
2018-02-17T06:21:26.970Z,32
2018-02-17T06:22:28.614Z,36
2018-02-17T06:23:30.265Z,40
2018-02-17T06:24:31.921Z,48
2018-02-17T06:25:33.595Z,56
2018-02-17T06:26:35.240Z,64
2018-02-17T06:27:36.898Z,72
2018-02-17T06:28:38.540Z,80
2018-02-17T06:29:40.196Z,92
2018-02-17T06:30:41.845Z,100
2018-02-17T06:31:43.500Z,112
2018-02-17T06:32:45.152Z,124
2018-02-17T06:33:46.796Z,140
2018-02-17T06:34:48.444Z,156
2018-02-17T06:35:50.098Z,172
2018-02-17T06:36:51.744Z,188
2018-02-17T06:37:53.402Z,204
2018-02-17T06:38:55.061Z,228
2018-02-17T06:39:56.705Z,244
2018-02-17T06:40:58.367Z,268
2018-02-17T06:41:59.996Z,292
2018-02-17T06:43:01.696Z,320
2018-02-17T06:44:03.343Z,348
2018-02-17T06:45:05.000Z,376
2018-02-17T06:46:06.664Z,412
2018-02-17T06:47:08.337Z,452
2018-02-17T06:48:09.983Z,492
2018-02-17T06:49:11.634Z,540
2018-02-17T06:50:13.281Z,580
2018-02-17T06:51:14.935Z,620
2018-02-17T06:52:16.587Z,656
2018-02-17T06:53:18.232Z,688
2018-02-17T06:54:19.887Z,732
2018-02-17T06:55:21.538Z,780
2018-02-17T07:02:06.319Z,1196
2018-02-17T07:03:07.958Z,1268
2018-02-17T07:04:09.608Z,1332
2018-02-17T07:05:11.265Z,1392
2018-02-17T07:06:12.912Z,1440
2018-02-17T07:07:14.566Z,1484
2018-02-17T07:08:16.211Z,1540
2018-02-17T07:09:17.863Z,1612
2018-02-17T07:10:19.507Z,1700
2018-02-17T07:11:21.163Z,1768
2018-02-17T07:12:22.817Z,1820
2018-02-17T07:13:24.462Z,1860
2018-02-17T07:14:26.113Z,1928
2018-02-17T07:15:27.765Z,2032
2018-02-17T07:16:29.446Z,2144
2018-02-17T07:17:31.118Z,2228
2018-02-17T07:18:32.784Z,2284
2018-02-17T07:19:34.436Z,2344
2018-02-17T07:20:36.179Z,2420
2018-02-17T07:21:37.827Z,2512
2018-02-17T07:22:39.476Z,2620
2018-02-17T07:23:41.117Z,2740
2018-02-17T07:24:42.764Z,2880
2018-02-17T07:25:44.435Z,3008
2018-02-17T07:26:46.088Z,3128
2018-02-17T07:27:47.737Z,3212
2018-02-17T07:28:49.389Z,3288
2018-02-17T07:29:51.043Z,3356
2018-02-17T07:30:52.697Z,3440
2018-02-17T07:31:54.353Z,3540
2018-02-17T07:32:56.002Z,3648
2018-02-17T07:33:57.654Z,3736
2018-02-17T07:34:59.308Z,3780
2018-02-17T07:36:00.960Z,3800
2018-02-17T07:37:02.609Z,3812
2018-02-17T07:38:04.257Z,3836
2018-02-17T07:39:05.923Z,3896
2018-02-17T07:40:07.571Z,4000
2018-02-17T07:41:09.227Z,4148
2018-02-17T07:42:10.904Z,4332
2018-02-17T07:43:12.569Z,4500
2018-02-17T07:44:14.223Z,4616
2018-02-17T07:45:15.873Z,4696
2018-02-17T07:46:17.553Z,4788
2018-02-17T07:47:19.207Z,4920
2018-02-17T07:48:20.856Z,5072
2018-02-17T07:49:22.733Z,5244
2018-02-17T07:50:24.380Z,5420
2018-02-17T07:51:26.046Z,5572
2018-02-17T07:52:27.697Z,5716
2018-02-17T07:53:29.352Z,5828
2018-02-17T07:54:31.003Z,5904
2018-02-17T07:55:32.661Z,5952
2018-02-17T07:56:34.319Z,6004
2018-02-17T07:57:35.973Z,6080
2018-02-17T07:58:37.629Z,6148
2018-02-17T07:59:39.327Z,6220
2018-02-17T08:00:40.996Z,6272
2018-02-17T08:01:42.662Z,6276
2018-02-17T08:02:44.313Z,6228
2018-02-17T08:03:45.967Z,6148
2018-02-17T08:04:47.620Z,6048
2018-02-17T08:05:49.322Z,5936
2018-02-17T08:06:50.983Z,5800
2018-02-17T08:07:52.648Z,5684
2018-02-17T08:08:54.303Z,5640
2018-02-17T08:09:56.011Z,5680
2018-02-17T08:10:57.644Z,5788
2018-02-17T08:11:59.301Z,5904
2018-02-17T08:13:00.959Z,5988
2018-02-17T08:14:02.651Z,6028
2018-02-17T08:15:04.317Z,6064
2018-02-17T08:16:05.966Z,6104
2018-02-17T08:17:07.620Z,6160
2018-02-17T08:18:09.278Z,6228
2018-02-17T08:19:10.939Z,6344
2018-02-17T08:20:12.606Z,6528
2018-02-17T08:21:14.260Z,6772
2018-02-17T08:22:15.933Z,7040
2018-02-17T08:23:17.582Z,7316
2018-02-17T08:24:19.448Z,7700
2018-02-17T08:25:21.336Z,8180
2018-02-17T08:26:22.997Z,8724
2018-02-17T08:27:24.646Z,9224
2018-02-17T08:28:26.298Z,9768
2018-02-17T08:29:28.013Z,10328
2018-02-17T08:30:31.443Z,10776
2018-02-17T08:31:32.934Z,10956
2018-02-17T08:32:34.630Z,10944
2018-02-17T08:33:36.327Z,10964
2018-02-17T08:34:37.980Z,11116
2018-02-17T08:35:39.643Z,11400
2018-02-17T08:36:41.296Z,11704
2018-02-17T08:37:43.206Z,11972
2018-02-17T08:38:44.875Z,12144
2018-02-17T08:39:46.528Z,12176
2018-02-17T08:40:48.192Z,12160
2018-02-17T08:41:49.872Z,12108
2018-02-17T08:42:51.522Z,11908
2018-02-17T08:43:53.199Z,11564
2018-02-17T08:44:54.855Z,11264
2018-02-17T08:45:56.507Z,11136
2018-02-17T08:46:58.153Z,11164
2018-02-17T08:47:59.880Z,11260
2018-02-17T08:49:01.698Z,11340
2018-02-17T08:50:03.382Z,11392
2018-02-17T08:51:05.054Z,11404
2018-02-17T08:52:06.741Z,11364
2018-02-17T08:53:08.371Z,11328
2018-02-17T08:54:10.029Z,11296
2018-02-17T08:55:11.918Z,11256
2018-02-17T08:56:13.787Z,11208
2018-02-17T08:57:15.651Z,11160
2018-02-17T08:58:17.465Z,11120
2018-02-17T08:59:19.285Z,11080
2018-02-17T09:00:21.176Z,11032
2018-02-17T09:01:23.029Z,11028
2018-02-17T09:02:24.756Z,11044
2018-02-17T09:03:27.214Z,11132
2018-02-17T09:04:29.304Z,11228
2018-02-17T09:05:31.781Z,11328
2018-02-17T09:06:35.026Z,11452
2018-02-17T09:07:36.830Z,11608
2018-02-17T09:08:38.678Z,11700
2018-02-17T09:09:40.433Z,11760
2018-02-17T09:10:42.143Z,11808
2018-02-17T09:11:43.862Z,11864
2018-02-17T09:12:46.179Z,11996
2018-02-17T09:13:48.333Z,12188
2018-02-17T09:14:50.146Z,12408
2018-02-17T09:15:51.840Z,12652
2018-02-17T09:16:53.657Z,12872
2018-02-17T09:17:55.598Z,13068
2018-02-17T09:18:57.601Z,13140
2018-02-17T09:19:59.282Z,13112
2018-02-17T09:21:00.967Z,13036
2018-02-17T09:22:02.687Z,12904
2018-02-17T09:23:04.409Z,12756
2018-02-17T09:24:07.602Z,12584
2018-02-17T09:25:09.353Z,12428
2018-02-17T09:26:11.149Z,12332
2018-02-17T09:27:12.848Z,12252
2018-02-17T09:28:14.558Z,12116
2018-02-17T09:29:16.271Z,11988
2018-02-17T09:30:18.006Z,11808
2018-02-17T09:31:19.719Z,11736
2018-02-17T09:32:21.437Z,11720
2018-02-17T09:33:23.175Z,11788
2018-02-17T09:34:25.929Z,11832
2018-02-17T09:35:27.654Z,11896
2018-02-17T09:36:29.330Z,11916
2018-02-17T09:37:30.991Z,11916
2018-02-17T09:38:32.710Z,11944
2018-02-17T09:39:34.463Z,11964
2018-02-17T09:40:36.198Z,12016
2018-02-17T09:41:37.916Z,12088
2018-02-17T09:42:39.657Z,12120
2018-02-17T09:43:41.336Z,12092
2018-02-17T09:44:43.021Z,12136
2018-02-17T09:45:44.718Z,12140
2018-02-17T09:46:46.408Z,12140
2018-02-17T09:47:48.168Z,12184
2018-02-17T09:48:49.858Z,12304
2018-02-17T09:49:51.529Z,12484
2018-02-17T09:50:53.196Z,12584
2018-02-17T09:51:54.871Z,12600
2018-02-17T09:52:56.522Z,12644
2018-02-17T09:53:58.191Z,12668
2018-02-17T09:54:59.850Z,12648
2018-02-17T09:56:01.507Z,12648
2018-02-17T09:57:03.168Z,12692
2018-02-17T09:58:04.836Z,12792
2018-02-17T09:59:06.491Z,12936
2018-02-17T10:00:08.146Z,13176
2018-02-17T10:01:09.819Z,13472
2018-02-17T10:02:11.484Z,13720
2018-02-17T10:03:13.148Z,13868
2018-02-17T10:04:14.813Z,13964
2018-02-17T10:05:16.471Z,14108
2018-02-17T10:06:18.127Z,14264
2018-02-17T10:07:19.790Z,14340
2018-02-17T10:08:21.450Z,14308
2018-02-17T10:09:23.350Z,14308
2018-02-17T10:10:25.008Z,14352
2018-02-17T10:11:26.675Z,14424
2018-02-17T10:12:28.322Z,14500
2018-02-17T10:13:29.977Z,14612
2018-02-17T10:14:31.672Z,14708
2018-02-17T10:15:33.332Z,14776
2018-02-17T10:16:34.993Z,14728
2018-02-17T10:17:36.659Z,14632
2018-02-17T10:18:38.322Z,14576
2018-02-17T10:19:39.974Z,14636
2018-02-17T10:20:41.628Z,14672
2018-02-17T10:21:43.284Z,14760
2018-02-17T10:22:44.939Z,14852
2018-02-17T10:23:46.595Z,14868
2018-02-17T10:24:48.379Z,14924
2018-02-17T10:25:50.044Z,15028
2018-02-17T10:26:51.818Z,15216
2018-02-17T10:27:53.475Z,15468
2018-02-17T10:28:55.138Z,15716
2018-02-17T10:29:56.800Z,15932
2018-02-17T10:30:58.538Z,16096
2018-02-17T10:32:00.197Z,16328
2018-02-17T10:33:01.852Z,16604
2018-02-17T10:34:03.514Z,16852
2018-02-17T10:35:05.174Z,16956
2018-02-17T10:36:06.837Z,16840
2018-02-17T10:37:08.494Z,16584
2018-02-17T10:38:10.163Z,16308
2018-02-17T10:39:11.819Z,16112
2018-02-17T10:40:13.474Z,16060
2018-02-17T10:41:15.148Z,16136
2018-02-17T10:42:16.801Z,16308
2018-02-17T10:43:18.457Z,16484
2018-02-17T10:44:20.145Z,16620
2018-02-17T10:45:21.801Z,16744
2018-02-17T10:46:23.466Z,16896
2018-02-17T10:47:25.131Z,17100
2018-02-17T10:48:26.788Z,17504
2018-02-17T10:49:28.445Z,17632
2018-02-17T10:50:30.114Z,17728
2018-02-17T10:51:31.750Z,17664
2018-02-17T10:52:33.409Z,17472
2018-02-17T10:53:35.136Z,17192
2018-02-17T10:54:36.810Z,17472
2018-02-17T10:55:38.490Z,17760
2018-02-17T11:01:34.496Z,19104
2018-02-17T11:02:36.218Z,19168
2018-02-17T11:03:37.880Z,19232
2018-02-17T11:04:39.572Z,19328
2018-02-17T11:05:41.308Z,19264
2018-02-17T11:06:43.248Z,19136
2018-02-17T11:07:45.301Z,19040
2018-02-17T11:08:46.951Z,19232
2018-02-17T11:09:48.618Z,19552
2018-02-17T11:10:50.273Z,19712
2018-02-17T11:11:51.933Z,19648
2018-02-17T11:12:53.608Z,19552
2018-02-17T11:13:55.268Z,19456
2018-02-17T11:14:56.928Z,19360
2018-02-17T11:15:58.586Z,19296
2018-02-17T11:17:00.242Z,19232
2018-02-17T11:18:01.904Z,19328
2018-02-17T11:19:03.576Z,19552
2018-02-17T11:20:05.229Z,19904
2018-02-17T11:21:06.889Z,20128
2018-02-17T11:22:08.548Z,20064
2018-02-17T11:23:10.210Z,19936
2018-02-17T11:24:11.865Z,20032
2018-02-17T11:25:13.524Z,20192
2018-02-17T11:26:16.295Z,20256
2018-02-17T11:27:17.807Z,20256
2018-02-17T11:28:19.456Z,20224
2018-02-17T11:29:21.161Z,20256
2018-02-17T11:30:22.824Z,20352
2018-02-17T11:31:24.725Z,20384
2018-02-17T11:32:26.376Z,20448
2018-02-17T11:33:28.029Z,20480
2018-02-17T11:34:29.685Z,20672
2018-02-17T11:35:31.360Z,20928
2018-02-17T11:36:37.944Z,21216
2018-02-17T11:37:39.642Z,21408
2018-02-17T11:38:41.317Z,21504
2018-02-17T11:39:43.042Z,21600
2018-02-17T11:40:44.704Z,21824
2018-02-17T11:41:46.365Z,21920
2018-02-17T11:42:48.058Z,22080
2018-02-17T11:43:49.730Z,22272
2018-02-17T11:44:51.400Z,22304
2018-02-17T11:45:53.061Z,22208
2018-02-17T11:46:54.738Z,22240
2018-02-17T11:47:56.391Z,22208
2018-02-17T11:48:58.057Z,22080
2018-02-17T11:49:59.714Z,22080
2018-02-17T11:51:01.383Z,22080
2018-02-17T11:52:03.045Z,22080
2018-02-17T11:53:04.707Z,22112
2018-02-17T11:54:06.536Z,22336
2018-02-17T11:55:08.203Z,22656
2018-02-17T11:56:09.863Z,22976
2018-02-17T11:57:11.704Z,23232
2018-02-17T11:58:13.373Z,23328
2018-02-17T11:59:15.039Z,23328
2018-02-17T12:00:16.711Z,23136
2018-02-17T12:01:18.370Z,23136
2018-02-17T12:02:20.033Z,23456
2018-02-17T12:03:21.707Z,23680
2018-02-17T12:04:23.365Z,23872
2018-02-17T12:05:25.026Z,24320
2018-02-17T12:06:26.690Z,24832
2018-02-17T12:07:28.367Z,24768
2018-02-17T12:08:30.120Z,24448
2018-02-17T12:09:31.792Z,24480
2018-02-17T12:10:33.492Z,24448
2018-02-17T12:11:35.152Z,24512
2018-02-17T12:12:36.916Z,24288
2018-02-17T12:13:38.672Z,24576
2018-02-17T12:14:40.322Z,24960
2018-02-17T12:15:41.990Z,24704
2018-02-17T12:16:43.645Z,24288
2018-02-17T12:17:45.309Z,24064
2018-02-17T12:18:46.975Z,24256
2018-02-17T12:19:48.640Z,24352
2018-02-17T12:20:50.306Z,24576
2018-02-17T12:21:51.963Z,24800
2018-02-17T12:22:53.623Z,24896
2018-02-17T12:23:55.352Z,24992
2018-02-17T12:24:57.033Z,24800
2018-02-17T12:25:58.711Z,24192
2018-02-17T12:27:00.375Z,24032
2018-02-17T12:28:02.048Z,23744
2018-02-17T12:29:03.782Z,23520
2018-02-17T12:30:05.445Z,23232
2018-02-17T12:31:07.105Z,23264
2018-02-17T12:32:08.757Z,23296
2018-02-17T12:33:10.422Z,23232
2018-02-17T12:34:12.088Z,22816
2018-02-17T12:35:13.749Z,22144
2018-02-17T12:36:15.420Z,21440
2018-02-17T12:37:17.074Z,20832
2018-02-17T12:38:18.729Z,20384
2018-02-17T12:39:20.390Z,20064
2018-02-17T12:40:22.050Z,19776
2018-02-17T12:41:23.713Z,19520
2018-02-17T12:42:25.374Z,19424
2018-02-17T12:43:27.033Z,19360
2018-02-17T12:44:28.705Z,19296
2018-02-17T12:45:30.385Z,19232
2018-02-17T12:46:32.042Z,19296
2018-02-17T12:47:33.695Z,19360
2018-02-17T12:48:35.364Z,19520
2018-02-17T12:49:37.034Z,19648
2018-02-17T12:50:38.683Z,19712
2018-02-17T12:51:40.358Z,19712
2018-02-17T12:52:42.023Z,19648
2018-02-17T12:53:43.696Z,19456
2018-02-17T12:54:45.351Z,19264
2018-02-17T12:55:47.004Z,19104
2018-02-17T12:56:48.671Z,18976
2018-02-17T12:57:50.339Z,18944
2018-02-17T12:58:52.024Z,19008
2018-02-17T12:59:53.665Z,19008
2018-02-17T13:00:55.326Z,18912
2018-02-17T13:01:56.987Z,18784
2018-02-17T13:02:58.657Z,18688
2018-02-17T13:04:00.322Z,18464
2018-02-17T13:05:01.983Z,18176
2018-02-17T13:06:03.663Z,17888
2018-02-17T13:07:05.443Z,17824
2018-02-17T13:08:07.118Z,17888
2018-02-17T13:09:08.773Z,17920
2018-02-17T13:10:10.430Z,17664
2018-02-17T13:11:12.087Z,17008
2018-02-17T13:12:13.760Z,16520
2018-02-17T13:13:15.448Z,16180
2018-02-17T13:14:17.108Z,16008
2018-02-17T13:15:18.791Z,15960
2018-02-17T13:16:20.465Z,16000
2018-02-17T13:17:22.131Z,16036
2018-02-17T13:18:23.796Z,15984
2018-02-17T13:19:25.461Z,15844
2018-02-17T13:20:27.120Z,15708
2018-02-17T13:21:28.779Z,15724
2018-02-17T13:22:30.446Z,15940
2018-02-17T13:23:32.131Z,16328
2018-02-17T13:24:33.795Z,16800
2018-02-17T13:25:35.455Z,17408
2018-02-17T13:26:37.139Z,17600
2018-02-17T13:27:38.770Z,17632
2018-02-17T13:28:40.429Z,17440
2018-02-17T13:29:42.105Z,17080
2018-02-17T13:30:43.768Z,17004
2018-02-17T13:31:45.443Z,17016
2018-02-17T13:32:47.100Z,17124
2018-02-17T13:33:48.766Z,17536
2018-02-17T13:34:50.416Z,17760
2018-02-17T13:35:52.096Z,17952
2018-02-17T13:36:53.753Z,18144
2018-02-17T13:37:55.407Z,18368
2018-02-17T13:38:57.064Z,18560
2018-02-17T13:39:58.716Z,18624
2018-02-17T13:41:00.372Z,18624
2018-02-17T13:42:02.038Z,18528
2018-02-17T13:43:03.718Z,18464
2018-02-17T13:44:05.371Z,18400
2018-02-17T13:45:07.037Z,18432
2018-02-17T13:46:08.700Z,18688
2018-02-17T13:47:10.363Z,19232
2018-02-17T13:48:12.026Z,19936
2018-02-17T13:49:13.675Z,20544
2018-02-17T13:50:15.342Z,21024
2018-02-17T13:51:17.053Z,21184
2018-02-17T13:52:18.720Z,21152
2018-02-17T13:53:20.531Z,20992
2018-02-17T13:54:22.195Z,20800
2018-02-17T13:55:24.032Z,20608
2018-02-17T13:56:25.678Z,20576
2018-02-17T13:57:27.371Z,20608
2018-02-17T13:58:29.037Z,20608
2018-02-17T13:59:30.807Z,20576
2018-02-17T14:00:32.466Z,20576
2018-02-17T14:01:34.126Z,20640
2018-02-17T14:02:35.775Z,20704
2018-02-17T14:03:37.438Z,20736
2018-02-17T14:04:39.091Z,20640
2018-02-17T14:05:41.136Z,20544
2018-02-17T14:06:42.800Z,20576
2018-02-17T14:07:44.474Z,20576
2018-02-17T14:08:46.147Z,20608
2018-02-17T14:09:47.810Z,20896
2018-02-17T14:10:49.469Z,20672
2018-02-17T14:11:51.163Z,20544
2018-02-17T14:12:52.807Z,20384
2018-02-17T14:13:54.501Z,20128
2018-02-17T14:14:56.153Z,19744
2018-02-17T14:15:57.811Z,18880
2018-02-17T14:16:59.491Z,18208
2018-02-17T14:18:01.142Z,17728
2018-02-17T14:19:02.805Z,16848
2018-02-17T14:20:04.462Z,16108
2018-02-17T14:21:06.137Z,15364
2018-02-17T14:22:07.800Z,14720
2018-02-17T14:23:09.469Z,13988
2018-02-17T14:24:11.127Z,13436
2018-02-17T14:25:12.792Z,13128